createdAt,value
2023-03-16T00:00:56.829Z,2.00
2023-03-16T00:03:24.533Z,1.98
2023-03-16T00:05:54.319Z,2.00
2023-03-16T00:08:21.904Z,2.02
2023-03-16T00:10:49.518Z,2.04
2023-03-16T00:13:20.005Z,2.04
2023-03-16T00:15:52.395Z,2.05
2023-03-16T00:18:20.163Z,2.03
2023-03-16T00:20:51.772Z,1.98
2023-03-16T00:23:19.583Z,1.88
2023-03-16T00:25:47.210Z,1.81
2023-03-16T00:28:14.837Z,1.84
2023-03-16T00:30:47.442Z,1.82
2023-03-16T00:33:15.088Z,1.66
2023-03-16T00:35:50.728Z,1.59
2023-03-16T00:38:18.616Z,1.60
2023-03-16T00:40:46.344Z,1.63
2023-03-16T00:43:18.577Z,1.67
2023-03-16T00:45:47.663Z,1.64
2023-03-16T00:48:16.440Z,1.69
2023-03-16T00:50:44.208Z,1.69
2023-03-16T00:53:11.859Z,1.57
2023-03-16T00:55:39.507Z,1.51
2023-03-16T00:58:07.157Z,1.51
2023-03-16T01:00:36.092Z,1.48
2023-03-16T01:03:05.089Z,1.45
2023-03-16T01:05:33.721Z,1.45
2023-03-16T01:08:02.806Z,1.40
2023-03-16T01:10:30.575Z,1.34
2023-03-16T01:12:58.274Z,1.26
2023-03-16T01:15:25.914Z,1.19
2023-03-16T01:17:54.393Z,1.22
2023-03-16T01:20:23.890Z,1.22
2023-03-16T01:22:51.885Z,1.22
2023-03-16T01:25:20.582Z,1.24
2023-03-16T01:27:48.483Z,1.22
2023-03-16T01:30:16.346Z,1.14
2023-03-16T01:32:44.138Z,1.11
2023-03-16T01:35:11.914Z,1.13
2023-03-16T01:37:41.397Z,1.12
2023-03-16T01:40:12.273Z,1.07
2023-03-16T01:42:46.806Z,1.07
2023-03-16T01:45:52.724Z,1.07
2023-03-16T01:48:22.674Z,1.04
2023-03-16T01:50:52.306Z,1.03
2023-03-16T01:53:22.030Z,0.97
2023-03-16T01:55:50.154Z,0.95
2023-03-16T01:58:18.652Z,0.91
2023-03-16T02:00:46.250Z,0.93
2023-03-16T02:03:16.590Z,0.96
2023-03-16T02:05:45.829Z,0.95
2023-03-16T02:08:13.440Z,0.89
2023-03-16T02:10:42.398Z,0.87
2023-03-16T02:13:11.178Z,0.87
2023-03-16T02:15:39.024Z,0.83
2023-03-16T02:18:07.842Z,0.79
2023-03-16T02:20:40.898Z,0.80
2023-03-16T02:23:18.561Z,0.81
2023-03-16T02:25:52.688Z,0.82
2023-03-16T02:28:26.273Z,0.76
2023-03-16T02:30:55.307Z,0.58
2023-03-16T02:33:23.708Z,0.46
2023-03-16T02:35:51.726Z,0.44
2023-03-16T02:38:19.396Z,0.45
2023-03-16T02:40:58.159Z,0.41
2023-03-16T02:43:30.162Z,0.42
2023-03-16T02:46:00.770Z,0.45
2023-03-16T02:48:32.731Z,0.48
2023-03-16T02:51:00.758Z,0.46
2023-03-16T02:53:28.442Z,0.40
2023-03-16T02:55:56.183Z,0.40
2023-03-16T02:58:23.795Z,0.38
2023-03-16T03:00:51.468Z,0.39
2023-03-16T03:03:20.472Z,0.33
2023-03-16T03:05:48.363Z,0.25
2023-03-16T03:08:16.387Z,0.19
2023-03-16T03:10:44.046Z,0.20
2023-03-16T03:13:12.298Z,0.18
2023-03-16T03:15:40.375Z,0.15
2023-03-16T03:18:08.977Z,0.15
2023-03-16T03:20:37.991Z,0.17
2023-03-16T03:23:05.687Z,0.17
2023-03-16T03:25:34.846Z,0.18
2023-03-16T03:28:05.474Z,0.14
2023-03-16T03:30:33.479Z,0.09
2023-03-16T03:33:01.526Z,0.03
2023-03-16T03:35:29.249Z,-0.11
2023-03-16T03:37:58.249Z,-0.13
2023-03-16T03:40:26.420Z,-0.09
2023-03-16T03:42:54.168Z,-0.13
2023-03-16T03:45:21.849Z,-0.17
2023-03-16T03:47:49.499Z,-0.16
2023-03-16T03:50:17.449Z,-0.15
2023-03-16T03:52:45.075Z,-0.15
2023-03-16T03:55:14.300Z,-0.16
2023-03-16T03:57:42.095Z,-0.20
2023-03-16T04:00:11.549Z,-0.27
2023-03-16T04:02:39.519Z,-0.29
2023-03-16T04:05:08.031Z,-0.26
2023-03-16T04:07:35.718Z,-0.30
2023-03-16T04:10:03.376Z,-0.33
2023-03-16T04:12:32.406Z,-0.33
2023-03-16T04:15:00.047Z,-0.34
2023-03-16T04:17:27.717Z,-0.40
2023-03-16T04:19:55.376Z,-0.46
2023-03-16T04:22:23.589Z,-0.50
2023-03-16T04:24:52.251Z,-0.50
2023-03-16T04:27:19.880Z,-0.50
2023-03-16T04:29:48.835Z,-0.50
2023-03-16T04:32:16.475Z,-0.51
2023-03-16T04:34:44.267Z,-0.51
2023-03-16T04:37:12.196Z,-0.53
2023-03-16T04:39:39.948Z,-0.59
2023-03-16T04:42:08.019Z,-0.57
2023-03-16T04:44:43.979Z,-0.55
2023-03-16T04:47:13.665Z,-0.55
2023-03-16T04:49:41.557Z,-0.59
2023-03-16T04:52:09.601Z,-0.60
2023-03-16T04:54:37.283Z,-0.59
2023-03-16T04:57:05.760Z,-0.56
2023-03-16T04:59:33.418Z,-0.53
2023-03-16T05:02:01.037Z,-0.59
2023-03-16T05:04:29.981Z,-0.66
2023-03-16T05:06:57.614Z,-0.66
2023-03-16T05:09:25.857Z,-0.66
2023-03-16T05:11:53.478Z,-0.64
2023-03-16T05:14:21.113Z,-0.65
2023-03-16T05:16:48.746Z,-0.67
2023-03-16T05:19:16.349Z,-0.69
2023-03-16T05:21:46.082Z,-0.67
2023-03-16T05:24:13.693Z,-0.64
2023-03-16T05:26:41.318Z,-0.68
2023-03-16T05:29:11.050Z,-0.65
2023-03-16T05:31:38.720Z,-0.63
2023-03-16T05:34:06.325Z,-0.61
2023-03-16T05:36:35.907Z,-0.60
2023-03-16T05:39:05.082Z,-0.61
2023-03-16T05:41:32.761Z,-0.59
2023-03-16T05:44:00.636Z,-0.54
2023-03-16T05:46:28.250Z,-0.52
2023-03-16T05:48:55.866Z,-0.50
2023-03-16T05:51:26.316Z,-0.47
2023-03-16T05:53:56.667Z,-0.46
2023-03-16T05:56:26.723Z,-0.44
2023-03-16T05:58:54.968Z,-0.42
2023-03-16T06:01:22.824Z,-0.38
2023-03-16T06:03:51.902Z,-0.33
2023-03-16T06:06:20.465Z,-0.28
2023-03-16T06:08:48.086Z,-0.20
2023-03-16T06:11:16.037Z,-0.16
2023-03-16T06:13:45.337Z,-0.11
2023-03-16T06:16:14.373Z,-0.03
2023-03-16T06:18:42.121Z,0.05
2023-03-16T06:21:09.763Z,0.13
2023-03-16T06:23:37.368Z,0.18
2023-03-16T06:26:05.376Z,0.24
2023-03-16T06:28:32.981Z,0.33
2023-03-16T06:31:02.006Z,0.34
2023-03-16T06:33:29.678Z,0.42
2023-03-16T06:35:57.354Z,0.50
2023-03-16T06:38:25.064Z,0.60
2023-03-16T06:40:53.822Z,0.67
2023-03-16T06:43:21.455Z,0.73
2023-03-16T06:45:49.154Z,0.80
2023-03-16T06:48:18.178Z,0.85
2023-03-16T06:50:46.184Z,0.93
2023-03-16T06:53:13.936Z,1.10
2023-03-16T06:55:41.645Z,1.21
2023-03-16T06:58:09.304Z,1.29
2023-03-16T07:00:36.939Z,1.38
2023-03-16T07:03:04.953Z,1.54
2023-03-16T07:05:34.078Z,1.58
2023-03-16T07:08:02.198Z,1.75
2023-03-16T07:10:30.249Z,1.90
2023-03-16T07:12:58.029Z,2.09
2023-03-16T07:15:26.602Z,2.27
2023-03-16T07:17:54.313Z,2.30
2023-03-16T07:20:23.660Z,2.51
2023-03-16T07:22:52.907Z,2.66
2023-03-16T07:25:21.347Z,2.76
2023-03-16T07:27:49.026Z,2.82
2023-03-16T07:30:17.011Z,2.95
2023-03-16T07:32:44.723Z,3.03
2023-03-16T07:35:12.514Z,3.20
2023-03-16T07:37:40.136Z,3.34
2023-03-16T07:40:11.210Z,3.49
2023-03-16T07:42:38.857Z,3.67
2023-03-16T07:45:07.830Z,3.84
2023-03-16T07:47:35.485Z,3.85
2023-03-16T07:50:03.259Z,4.03
2023-03-16T07:52:30.881Z,4.16
2023-03-16T07:54:58.544Z,4.21
2023-03-16T07:57:27.521Z,4.39
2023-03-16T07:59:55.192Z,4.56
2023-03-16T08:02:22.944Z,4.65
2023-03-16T08:04:51.541Z,4.90
2023-03-16T08:07:19.269Z,5.10
2023-03-16T08:09:47.113Z,5.35
2023-03-16T08:12:14.822Z,5.43
2023-03-16T08:14:45.712Z,5.43
2023-03-16T08:17:13.690Z,5.42
2023-03-16T08:19:43.074Z,5.59
2023-03-16T08:22:10.703Z,5.71
2023-03-16T08:24:38.414Z,5.40
2023-03-16T08:27:06.155Z,5.54
2023-03-16T08:29:34.811Z,5.23
2023-03-16T08:32:03.852Z,5.38
2023-03-16T08:34:31.853Z,5.69
2023-03-16T08:37:01.114Z,5.96
2023-03-16T08:39:29.091Z,6.21
2023-03-16T08:41:57.324Z,5.85
2023-03-16T08:44:26.117Z,6.10
2023-03-16T08:46:53.821Z,6.16
2023-03-16T08:49:23.992Z,6.38
2023-03-16T08:51:51.806Z,6.38
2023-03-16T08:54:19.573Z,6.34
2023-03-16T08:56:47.187Z,6.64
2023-03-16T08:59:28.817Z,6.35
2023-03-16T09:01:57.225Z,6.76
2023-03-16T09:04:26.488Z,6.65
2023-03-16T09:07:09.998Z,6.66
2023-03-16T09:09:37.834Z,6.85
2023-03-16T09:12:06.520Z,7.25
2023-03-16T09:14:34.362Z,7.01
2023-03-16T09:17:01.970Z,7.06
2023-03-16T09:19:47.868Z,7.17
2023-03-16T09:22:18.515Z,7.56
2023-03-16T09:24:46.236Z,7.74
2023-03-16T09:27:13.915Z,7.83
2023-03-16T09:29:42.605Z,7.77
2023-03-16T09:32:11.087Z,7.76
2023-03-16T09:34:40.220Z,7.95
2023-03-16T09:37:08.236Z,8.20
2023-03-16T09:39:37.107Z,8.28
2023-03-16T09:42:13.887Z,7.93
2023-03-16T09:44:45.302Z,8.08
2023-03-16T09:47:13.544Z,8.32
2023-03-16T09:49:45.430Z,8.15
2023-03-16T09:52:21.678Z,8.36
2023-03-16T09:54:52.522Z,8.29
2023-03-16T09:57:26.560Z,8.44
2023-03-16T09:59:54.955Z,8.10
2023-03-16T10:02:39.682Z,8.45
2023-03-16T10:05:10.556Z,8.71
2023-03-16T10:07:44.281Z,8.92
2023-03-16T10:10:22.202Z,8.23
2023-03-16T10:12:52.603Z,8.38
2023-03-16T10:15:21.969Z,8.51
2023-03-16T10:17:53.779Z,8.31
2023-03-16T10:20:24.439Z,8.38
2023-03-16T10:22:53.607Z,8.44
2023-03-16T10:25:24.103Z,8.48
2023-03-16T10:27:52.007Z,8.58
2023-03-16T10:30:23.443Z,8.61
2023-03-16T10:32:51.476Z,8.85
2023-03-16T10:35:31.092Z,8.78
2023-03-16T10:37:58.989Z,8.82
2023-03-16T10:40:27.950Z,9.00
2023-03-16T10:42:55.942Z,9.27
2023-03-16T10:45:27.415Z,9.17
2023-03-16T10:47:56.020Z,8.99
2023-03-16T10:50:27.759Z,8.68
2023-03-16T10:52:57.608Z,9.04
2023-03-16T10:55:30.679Z,9.40
2023-03-16T10:57:58.504Z,9.59
2023-03-16T11:00:28.987Z,9.53
2023-03-16T11:02:57.405Z,9.31
2023-03-16T11:05:31.716Z,9.65
2023-03-16T11:08:10.409Z,9.77
2023-03-16T11:10:49.422Z,10.05
2023-03-16T11:13:19.531Z,10.09
2023-03-16T11:15:52.130Z,10.29
2023-03-16T11:18:31.452Z,9.81
2023-03-16T11:21:03.702Z,10.23
2023-03-16T11:23:31.637Z,10.36
2023-03-16T11:26:01.131Z,10.60
2023-03-16T11:28:35.781Z,11.01
2023-03-16T11:31:10.082Z,10.89
2023-03-16T11:33:38.055Z,10.99
2023-03-16T11:36:27.733Z,11.00
2023-03-16T11:39:04.688Z,11.30
2023-03-16T11:41:40.637Z,10.91
2023-03-16T11:44:15.628Z,10.80
2023-03-16T11:46:50.234Z,10.78
2023-03-16T11:49:35.872Z,10.63
2023-03-16T11:52:10.795Z,10.90
2023-03-16T11:54:49.242Z,11.00
2023-03-16T11:57:30.744Z,11.10
2023-03-16T12:00:06.184Z,11.20
2023-03-16T12:02:46.474Z,10.94
2023-03-16T12:05:36.430Z,10.93
2023-03-16T12:08:16.893Z,10.65
2023-03-16T12:10:47.219Z,11.01
2023-03-16T12:13:33.119Z,11.13
2023-03-16T12:16:02.651Z,11.11
2023-03-16T12:18:38.586Z,11.53
2023-03-16T12:21:12.285Z,11.70
2023-03-16T12:23:56.127Z,11.70
2023-03-16T12:26:26.459Z,11.63
2023-03-16T12:28:55.304Z,11.70
2023-03-16T12:31:25.239Z,11.97
2023-03-16T12:33:59.842Z,12.21
2023-03-16T12:36:44.536Z,12.37
2023-03-16T12:39:16.908Z,12.54
2023-03-16T12:41:54.098Z,12.44
2023-03-16T12:44:23.957Z,12.41
2023-03-16T12:46:57.677Z,12.02
2023-03-16T12:49:26.556Z,12.01
2023-03-16T12:52:01.501Z,11.78
2023-03-16T12:54:30.678Z,11.94
2023-03-16T12:57:02.159Z,11.93
2023-03-16T12:59:38.293Z,11.95
2023-03-16T13:02:06.744Z,12.27
2023-03-16T13:04:39.318Z,11.82
2023-03-16T13:07:09.160Z,11.85
2023-03-16T13:09:43.878Z,11.90
2023-03-16T13:12:23.503Z,11.47
2023-03-16T13:14:54.700Z,11.40
2023-03-16T13:17:28.484Z,11.33
2023-03-16T13:20:06.722Z,11.40
2023-03-16T13:22:45.224Z,11.68
2023-03-16T13:25:18.098Z,11.68
2023-03-16T13:27:47.723Z,11.43
2023-03-16T13:30:21.370Z,11.38
2023-03-16T13:32:49.456Z,11.41
2023-03-16T13:35:18.908Z,11.46
2023-03-16T13:37:47.203Z,11.62
2023-03-16T13:40:21.821Z,11.54
2023-03-16T13:42:52.800Z,11.26
2023-03-16T13:45:23.816Z,11.32
2023-03-16T13:47:52.128Z,11.24
2023-03-16T13:50:20.760Z,11.40
2023-03-16T13:52:57.019Z,11.28
2023-03-16T13:55:31.308Z,11.46
2023-03-16T13:57:59.141Z,11.49
2023-03-16T14:00:29.305Z,11.44
2023-03-16T14:02:59.246Z,11.42
2023-03-16T14:05:29.420Z,11.18
2023-03-16T14:08:00.504Z,11.34
2023-03-16T14:10:32.217Z,11.34
2023-03-16T14:13:09.177Z,11.46
2023-03-16T14:15:38.094Z,11.38
2023-03-16T14:18:15.585Z,11.05
2023-03-16T14:20:43.659Z,11.22
2023-03-16T14:23:23.136Z,11.13
2023-03-16T14:25:53.530Z,11.01
2023-03-16T14:28:23.876Z,11.03
2023-03-16T14:30:52.682Z,11.01
2023-03-16T14:33:30.944Z,11.03
2023-03-16T14:36:00.704Z,11.17
2023-03-16T14:38:31.978Z,11.17
2023-03-16T14:41:07.544Z,11.16
2023-03-16T14:43:38.242Z,10.99
2023-03-16T14:46:07.366Z,10.94
2023-03-16T14:48:35.952Z,10.97
2023-03-16T14:51:04.462Z,11.00
2023-03-16T14:53:32.110Z,11.07
2023-03-16T14:56:01.175Z,11.08
2023-03-16T14:58:28.809Z,11.10
2023-03-16T15:00:56.514Z,11.08
2023-03-16T15:03:32.996Z,10.86
2023-03-16T15:06:01.343Z,10.74
2023-03-16T15:08:32.092Z,10.75
2023-03-16T15:11:04.899Z,10.82
2023-03-16T15:13:47.112Z,10.64
2023-03-16T15:16:15.102Z,10.82
2023-03-16T15:18:43.371Z,10.80
2023-03-16T15:21:12.855Z,10.72
2023-03-16T15:23:41.507Z,10.69
2023-03-16T15:26:12.463Z,10.63
2023-03-16T15:28:40.121Z,10.59
2023-03-16T15:31:08.418Z,10.51
2023-03-16T15:33:36.115Z,10.51
2023-03-16T15:36:12.025Z,10.61
2023-03-16T15:38:40.783Z,10.41
2023-03-16T15:41:11.928Z,10.46
2023-03-16T15:43:40.549Z,10.45
2023-03-16T15:46:08.254Z,10.48
2023-03-16T15:48:35.929Z,10.45
2023-03-16T15:51:07.622Z,10.38
2023-03-16T15:53:38.394Z,10.32
2023-03-16T15:56:07.481Z,10.10
2023-03-16T15:58:38.081Z,10.02
2023-03-16T16:01:06.777Z,9.99
2023-03-16T16:03:34.804Z,10.01
2023-03-16T16:06:02.516Z,10.07
2023-03-16T16:08:30.208Z,10.07
2023-03-16T16:10:58.075Z,10.04
2023-03-16T16:13:37.460Z,9.97
2023-03-16T16:16:12.410Z,9.97
2023-03-16T16:18:40.211Z,9.85
2023-03-16T16:21:11.178Z,9.79
2023-03-16T16:23:38.904Z,9.84
2023-03-16T16:26:10.828Z,9.76
2023-03-16T16:28:38.467Z,9.71
2023-03-16T16:31:14.288Z,9.58
2023-03-16T16:33:41.989Z,9.66
2023-03-16T16:36:14.868Z,9.60
2023-03-16T16:38:42.532Z,9.61
2023-03-16T16:41:10.719Z,9.56
2023-03-16T16:43:40.346Z,9.56
2023-03-16T16:46:14.282Z,9.52
2023-03-16T16:48:44.841Z,9.33
2023-03-16T16:51:18.409Z,9.23
2023-03-16T16:53:46.109Z,9.18
2023-03-16T16:56:15.428Z,9.16
2023-03-16T16:58:43.810Z,9.11
2023-03-16T17:01:16.559Z,9.04
2023-03-16T17:03:44.219Z,9.02
2023-03-16T17:06:15.690Z,8.95
2023-03-16T17:08:43.743Z,8.97
2023-03-16T17:11:14.190Z,8.74
2023-03-16T17:13:41.954Z,8.77
2023-03-16T17:16:11.776Z,8.77
2023-03-16T17:18:40.809Z,8.67
2023-03-16T17:21:11.943Z,8.65
2023-03-16T17:23:39.702Z,8.61
2023-03-16T17:26:14.217Z,8.48
2023-03-16T17:28:45.613Z,8.51
2023-03-16T17:31:13.821Z,8.53
2023-03-16T17:33:43.097Z,8.48
2023-03-16T17:36:11.821Z,8.46
2023-03-16T17:38:39.693Z,8.38
2023-03-16T17:41:07.908Z,8.32
2023-03-16T17:43:35.803Z,8.18
2023-03-16T17:46:04.382Z,8.05
2023-03-16T17:48:33.605Z,7.94
2023-03-16T17:51:02.685Z,7.86
2023-03-16T17:53:30.337Z,7.78
2023-03-16T17:55:58.052Z,7.69
2023-03-16T17:58:28.882Z,7.64
2023-03-16T18:00:56.746Z,7.55
2023-03-16T18:03:29.329Z,7.37
2023-03-16T18:05:58.394Z,7.24
2023-03-16T18:08:29.670Z,7.21
2023-03-16T18:10:58.991Z,7.25
2023-03-16T18:13:28.881Z,7.20
2023-03-16T18:15:57.406Z,7.00
2023-03-16T18:18:27.756Z,6.99
2023-03-16T18:20:56.232Z,6.88
2023-03-16T18:23:25.650Z,6.81
2023-03-16T18:25:56.189Z,6.81
2023-03-16T18:28:24.231Z,6.83
2023-03-16T18:30:53.528Z,6.77
2023-03-16T18:33:25.313Z,6.75
2023-03-16T18:35:54.707Z,6.72
2023-03-16T18:38:30.120Z,6.62
2023-03-16T18:40:59.941Z,6.52
2023-03-16T18:43:28.520Z,6.43
2023-03-16T18:45:56.820Z,6.43
2023-03-16T18:48:27.857Z,6.39
2023-03-16T18:50:55.696Z,6.33
2023-03-16T18:53:23.798Z,6.37
2023-03-16T18:55:52.071Z,6.31
2023-03-16T18:58:23.940Z,6.32
2023-03-16T19:00:53.927Z,6.27
2023-03-16T19:03:24.753Z,6.23
2023-03-16T19:05:53.080Z,6.25
2023-03-16T19:08:21.355Z,6.15
2023-03-16T19:10:51.127Z,6.13
2023-03-16T19:13:22.494Z,6.07
2023-03-16T19:15:52.137Z,6.03
2023-03-16T19:18:20.056Z,5.86
2023-03-16T19:20:50.234Z,5.87
2023-03-16T19:23:21.742Z,5.89
2023-03-16T19:25:50.430Z,5.83
2023-03-16T19:28:23.977Z,5.86
2023-03-16T19:30:51.680Z,5.83
2023-03-16T19:33:22.105Z,5.76
2023-03-16T19:35:52.150Z,5.71
2023-03-16T19:38:20.449Z,5.72
2023-03-16T19:40:49.566Z,5.77
2023-03-16T19:43:18.711Z,5.75
2023-03-16T19:45:48.569Z,5.71
2023-03-16T19:48:20.342Z,5.74
2023-03-16T19:50:49.169Z,5.73
2023-03-16T19:53:19.531Z,5.67
2023-03-16T19:55:47.975Z,5.57
2023-03-16T19:58:21.162Z,5.57
2023-03-16T20:00:51.062Z,5.60
2023-03-16T20:03:18.789Z,5.62
2023-03-16T20:05:46.501Z,5.56
2023-03-16T20:08:23.009Z,5.58
2023-03-16T20:10:50.944Z,5.55
2023-03-16T20:13:18.929Z,5.51
2023-03-16T20:15:47.459Z,5.52
2023-03-16T20:18:18.880Z,5.55
2023-03-16T20:20:47.284Z,5.51
2023-03-16T20:23:19.658Z,5.45
2023-03-16T20:25:47.791Z,5.43
2023-03-16T20:28:19.667Z,5.41
2023-03-16T20:30:48.664Z,5.40
2023-03-16T20:33:23.818Z,5.38
2023-03-16T20:35:53.470Z,5.34
2023-03-16T20:38:21.843Z,5.34
2023-03-16T20:40:52.465Z,5.31
2023-03-16T20:43:25.443Z,5.17
2023-03-16T20:45:54.403Z,5.15
2023-03-16T20:48:25.432Z,5.16
2023-03-16T20:50:53.593Z,5.15
2023-03-16T20:53:21.553Z,5.11
2023-03-16T20:55:50.533Z,4.97
2023-03-16T20:58:24.677Z,4.89
2023-03-16T21:00:53.175Z,4.88
2023-03-16T21:03:23.953Z,4.81
2023-03-16T21:05:52.453Z,4.80
2023-03-16T21:08:20.742Z,4.70
2023-03-16T21:10:50.056Z,4.65
2023-03-16T21:13:19.778Z,4.59
2023-03-16T21:15:49.912Z,4.57
2023-03-16T21:18:19.870Z,4.58
2023-03-16T21:20:50.036Z,4.39
2023-03-16T21:23:20.749Z,4.36
2023-03-16T21:25:50.402Z,4.36
2023-03-16T21:28:19.167Z,4.32
2023-03-16T21:30:48.955Z,4.32
2023-03-16T21:33:21.403Z,4.22
2023-03-16T21:35:50.590Z,4.08
2023-03-16T21:38:20.485Z,4.01
2023-03-16T21:40:49.133Z,4.03
2023-03-16T21:43:17.205Z,4.05
2023-03-16T21:45:45.353Z,4.02
2023-03-16T21:48:15.526Z,3.92
2023-03-16T21:50:44.086Z,3.90
2023-03-16T21:53:20.731Z,3.86
2023-03-16T21:55:48.945Z,3.84
2023-03-16T21:58:17.916Z,3.75
2023-03-16T22:00:46.887Z,3.75
2023-03-16T22:03:24.672Z,3.71
2023-03-16T22:05:52.456Z,3.70
2023-03-16T22:08:23.175Z,3.65
2023-03-16T22:10:52.062Z,3.66
2023-03-16T22:13:20.344Z,3.61
2023-03-16T22:15:51.533Z,3.50
2023-03-16T22:18:28.209Z,3.40
2023-03-16T22:20:56.457Z,3.39
2023-03-16T22:23:32.004Z,3.43
2023-03-16T22:25:59.716Z,3.44
2023-03-16T22:28:28.092Z,3.45
2023-03-16T22:30:57.499Z,3.36
2023-03-16T22:33:28.207Z,3.31
2023-03-16T22:35:56.190Z,3.14
2023-03-16T22:38:23.865Z,3.11
2023-03-16T22:40:53.214Z,3.07
2023-03-16T22:43:25.384Z,3.06
2023-03-16T22:45:56.429Z,2.98
2023-03-16T22:48:27.282Z,2.81
2023-03-16T22:50:55.200Z,2.70
2023-03-16T22:53:26.741Z,2.70
2023-03-16T22:55:56.586Z,2.74
2023-03-16T22:58:29.547Z,2.68
2023-03-16T23:00:57.681Z,2.66
2023-03-16T23:03:25.857Z,2.58
2023-03-16T23:05:53.723Z,2.49
2023-03-16T23:08:23.517Z,2.38
2023-03-16T23:10:52.577Z,2.33
2023-03-16T23:13:25.138Z,2.36
2023-03-16T23:15:55.351Z,2.36
2023-03-16T23:18:24.913Z,2.39
2023-03-16T23:20:53.317Z,2.38
2023-03-16T23:23:21.044Z,2.35
2023-03-16T23:25:49.100Z,2.29
2023-03-16T23:28:18.791Z,2.25
2023-03-16T23:30:47.959Z,2.18
2023-03-16T23:33:16.323Z,2.08
2023-03-16T23:35:46.562Z,2.08
2023-03-16T23:38:14.600Z,1.98
2023-03-16T23:40:42.307Z,2.04
2023-03-16T23:43:10.077Z,2.04
2023-03-16T23:45:40.018Z,2.08
2023-03-16T23:48:14.196Z,2.08
2023-03-16T23:50:42.665Z,2.01
2023-03-16T23:53:13.515Z,1.97
2023-03-16T23:55:41.876Z,1.93
2023-03-16T23:58:09.939Z,1.92
